createdAt,value
2023-02-26T00:01:01.917Z,-0.56
2023-02-26T00:03:28.420Z,-0.53
2023-02-26T00:06:00.010Z,-0.57
2023-02-26T00:08:26.693Z,-0.69
2023-02-26T00:10:54.721Z,-0.83
2023-02-26T00:13:21.693Z,-0.84
2023-02-26T00:15:50.328Z,-0.84
2023-02-26T00:18:17.439Z,-0.81
2023-02-26T00:20:44.276Z,-0.79
2023-02-26T00:23:17.547Z,-0.69
2023-02-26T00:25:44.832Z,-0.68
2023-02-26T00:28:11.607Z,-0.74
2023-02-26T00:30:38.875Z,-0.72
2023-02-26T00:33:05.845Z,-0.81
2023-02-26T00:35:32.745Z,-0.66
2023-02-26T00:38:07.570Z,-0.69
2023-02-26T00:40:43.836Z,-0.69
2023-02-26T00:43:16.394Z,-0.72
2023-02-26T00:45:47.451Z,-0.75
2023-02-26T00:48:30.679Z,-0.64
2023-02-26T00:51:02.800Z,-0.58
2023-02-26T00:53:35.068Z,-0.75
2023-02-26T00:56:01.435Z,-0.74
2023-02-26T00:58:27.813Z,-0.57
2023-02-26T01:00:54.174Z,-0.71
2023-02-26T01:03:20.794Z,-0.75
2023-02-26T01:05:47.353Z,-0.69
2023-02-26T01:08:21.943Z,-0.75
2023-02-26T01:10:48.524Z,-0.70
2023-02-26T01:13:15.353Z,-0.73
2023-02-26T01:15:46.790Z,-0.79
2023-02-26T01:18:19.440Z,-0.84
2023-02-26T01:20:59.419Z,-0.79
2023-02-26T01:23:27.070Z,-0.81
2023-02-26T01:26:04.204Z,-0.86
2023-02-26T01:28:31.890Z,-0.72
2023-02-26T01:31:00.755Z,-0.76
2023-02-26T01:33:50.906Z,-0.73
2023-02-26T01:36:21.442Z,-0.79
2023-02-26T01:38:59.845Z,-0.80
2023-02-26T01:41:45.150Z,-0.73
2023-02-26T01:44:19.241Z,-0.82
2023-02-26T01:46:54.812Z,-0.77
2023-02-26T01:49:21.552Z,-0.83
2023-02-26T01:51:50.483Z,-0.75
2023-02-26T01:54:20.834Z,-0.83
2023-02-26T01:56:51.091Z,-0.74
2023-02-26T01:59:24.063Z,-0.87
2023-02-26T02:01:52.692Z,-0.87
2023-02-26T02:04:19.300Z,-0.84
2023-02-26T02:06:46.444Z,-0.94
2023-02-26T02:09:13.227Z,-0.92
2023-02-26T02:12:11.326Z,-0.95
2023-02-26T02:14:40.691Z,-0.89
2023-02-26T02:17:25.826Z,-0.91
2023-02-26T02:20:27.447Z,-0.81
2023-02-26T02:23:30.994Z,-0.84
2023-02-26T02:26:15.062Z,-0.93
2023-02-26T02:28:59.779Z,-0.97
2023-02-26T02:31:33.803Z,-0.93
2023-02-26T02:34:07.210Z,-0.94
2023-02-26T02:37:05.003Z,-0.97
2023-02-26T02:39:35.617Z,-0.84
2023-02-26T02:42:05.543Z,-0.95
2023-02-26T02:44:35.262Z,-1.02
2023-02-26T02:47:01.948Z,-0.81
2023-02-26T02:49:35.746Z,-0.95
2023-02-26T02:52:08.185Z,-0.99
2023-02-26T02:54:50.596Z,-1.00
2023-02-26T02:57:22.001Z,-1.07
2023-02-26T02:59:54.437Z,-1.09
2023-02-26T03:02:25.442Z,-1.08
2023-02-26T03:04:51.924Z,-1.22
2023-02-26T03:07:18.307Z,-1.30
2023-02-26T03:09:44.734Z,-1.12
2023-02-26T03:12:11.110Z,-1.13
2023-02-26T03:14:38.008Z,-1.22
2023-02-26T03:17:27.500Z,-1.29
2023-02-26T03:20:11.261Z,-1.23
2023-02-26T03:22:43.580Z,-1.34
2023-02-26T03:25:17.044Z,-1.30
2023-02-26T03:27:49.539Z,-1.33
2023-02-26T03:30:27.003Z,-1.37
2023-02-26T03:33:02.481Z,-1.29
2023-02-26T03:35:38.035Z,-1.42
2023-02-26T03:38:07.810Z,-1.53
2023-02-26T03:40:38.756Z,-1.35
2023-02-26T03:43:37.179Z,-1.44
2023-02-26T03:46:05.728Z,-1.34
2023-02-26T03:48:34.013Z,-1.37
2023-02-26T03:51:05.568Z,-1.57
2023-02-26T03:53:36.160Z,-1.50
2023-02-26T03:56:27.529Z,-1.60
2023-02-26T03:58:53.980Z,-1.49
2023-02-26T04:01:23.615Z,-1.52
2023-02-26T04:03:58.263Z,-1.41
2023-02-26T04:06:25.508Z,-1.46
2023-02-26T04:08:52.537Z,-1.27
2023-02-26T04:11:20.908Z,-1.44
2023-02-26T04:13:47.689Z,-1.49
2023-02-26T04:16:14.837Z,-1.43
2023-02-26T04:18:42.383Z,-1.46
2023-02-26T04:21:16.815Z,-1.34
2023-02-26T04:23:43.189Z,-1.40
2023-02-26T04:26:09.584Z,-1.58
2023-02-26T04:28:37.710Z,-1.46
2023-02-26T04:31:05.539Z,-1.55
2023-02-26T04:33:33.125Z,-1.57
2023-02-26T04:36:00.495Z,-1.59
2023-02-26T04:38:27.087Z,-1.64
2023-02-26T04:40:53.482Z,-1.69
2023-02-26T04:43:19.950Z,-1.73
2023-02-26T04:45:47.433Z,-1.66
2023-02-26T04:48:17.434Z,-1.71
2023-02-26T04:50:44.490Z,-1.68
2023-02-26T04:53:10.922Z,-1.77
2023-02-26T04:55:37.387Z,-1.72
2023-02-26T04:58:03.813Z,-1.74
2023-02-26T05:00:30.196Z,-1.85
2023-02-26T05:02:56.582Z,-1.84
2023-02-26T05:05:23.104Z,-1.88
2023-02-26T05:07:49.563Z,-1.82
2023-02-26T05:10:15.942Z,-1.83
2023-02-26T05:12:42.313Z,-1.85
2023-02-26T05:15:09.001Z,-1.87
2023-02-26T05:17:35.453Z,-1.80
2023-02-26T05:20:01.810Z,-1.94
2023-02-26T05:22:28.194Z,-1.84
2023-02-26T05:24:54.595Z,-1.87
2023-02-26T05:27:20.977Z,-1.70
2023-02-26T05:29:47.329Z,-1.71
2023-02-26T05:32:13.827Z,-1.93
2023-02-26T05:34:41.265Z,-1.90
2023-02-26T05:37:07.694Z,-1.98
2023-02-26T05:39:34.129Z,-1.98
2023-02-26T05:42:00.509Z,-2.06
2023-02-26T05:44:26.994Z,-2.00
2023-02-26T05:46:53.532Z,-1.96
2023-02-26T05:49:19.967Z,-2.02
2023-02-26T05:51:46.429Z,-1.95
2023-02-26T05:54:12.784Z,-2.17
2023-02-26T05:56:39.192Z,-2.14
2023-02-26T05:59:05.564Z,-2.14
2023-02-26T06:01:32.215Z,-2.05
2023-02-26T06:03:58.653Z,-2.06
2023-02-26T06:06:27.034Z,-2.10
2023-02-26T06:08:53.617Z,-2.16
2023-02-26T06:11:20.020Z,-2.09
2023-02-26T06:13:46.441Z,-2.18
2023-02-26T06:16:12.900Z,-2.18
2023-02-26T06:18:39.281Z,-2.20
2023-02-26T06:21:05.781Z,-2.12
2023-02-26T06:23:32.189Z,-2.00
2023-02-26T06:25:59.821Z,-2.11
2023-02-26T06:28:26.461Z,-2.01
2023-02-26T06:30:53.825Z,-2.18
2023-02-26T06:33:20.736Z,-2.11
2023-02-26T06:35:47.965Z,-2.16
2023-02-26T06:38:14.754Z,-2.22
2023-02-26T06:40:41.235Z,-2.15
2023-02-26T06:43:07.853Z,-2.20
2023-02-26T06:45:34.236Z,-2.19
2023-02-26T06:48:00.673Z,-2.19
2023-02-26T06:50:27.038Z,-2.20
2023-02-26T06:52:53.419Z,-2.14
2023-02-26T06:55:21.766Z,-2.10
2023-02-26T06:57:48.178Z,-2.15
2023-02-26T07:00:14.827Z,-2.08
2023-02-26T07:02:41.255Z,-2.16
2023-02-26T07:05:07.904Z,-2.06
2023-02-26T07:07:34.285Z,-2.05
2023-02-26T07:10:00.681Z,-2.01
2023-02-26T07:12:27.067Z,-1.93
2023-02-26T07:14:53.449Z,-1.96
2023-02-26T07:17:22.651Z,-1.92
2023-02-26T07:19:50.626Z,-1.89
2023-02-26T07:22:20.907Z,-1.89
2023-02-26T07:24:49.413Z,-1.95
2023-02-26T07:27:15.825Z,-2.00
2023-02-26T07:29:42.212Z,-2.01
2023-02-26T07:32:08.820Z,-1.92
2023-02-26T07:34:35.258Z,-1.79
2023-02-26T07:37:01.629Z,-1.70
2023-02-26T07:39:28.350Z,-1.85
2023-02-26T07:41:54.847Z,-1.81
2023-02-26T07:44:21.321Z,-1.67
2023-02-26T07:46:47.698Z,-1.57
2023-02-26T07:49:14.082Z,-1.67
2023-02-26T07:51:40.948Z,-1.69
2023-02-26T07:54:07.342Z,-1.43
2023-02-26T07:56:33.733Z,-1.37
2023-02-26T07:59:00.166Z,-1.36
2023-02-26T08:01:26.599Z,-1.38
2023-02-26T08:03:53.069Z,-1.21
2023-02-26T08:06:19.479Z,-1.34
2023-02-26T08:08:45.879Z,-1.42
2023-02-26T08:11:12.258Z,-1.33
2023-02-26T08:13:38.626Z,-1.36
2023-02-26T08:16:05.064Z,-0.89
2023-02-26T08:18:31.524Z,-0.93
2023-02-26T08:20:57.924Z,-0.90
2023-02-26T08:23:24.352Z,-0.94
2023-02-26T08:25:50.952Z,-0.57
2023-02-26T08:28:17.322Z,-0.40
2023-02-26T08:30:43.724Z,-0.50
2023-02-26T08:33:10.135Z,-0.58
2023-02-26T08:35:36.508Z,-0.33
2023-02-26T08:38:02.888Z,-0.45
2023-02-26T08:40:29.300Z,-0.50
2023-02-26T08:42:55.662Z,-0.68
2023-02-26T08:45:22.061Z,-0.44
2023-02-26T08:47:56.767Z,-0.59
2023-02-26T08:50:24.572Z,-0.25
2023-02-26T08:52:50.928Z,-0.36
2023-02-26T08:55:17.386Z,-0.07
2023-02-26T08:57:43.784Z,-0.22
2023-02-26T09:00:10.825Z,0.00
2023-02-26T09:02:38.118Z,0.15
2023-02-26T09:05:05.704Z,0.04
2023-02-26T09:07:32.073Z,-0.17
2023-02-26T09:09:58.463Z,-0.12
2023-02-26T09:12:24.854Z,0.05
2023-02-26T09:14:51.274Z,0.10
2023-02-26T09:17:17.671Z,-0.01
2023-02-26T09:19:44.192Z,0.13
2023-02-26T09:22:10.559Z,0.14
2023-02-26T09:24:37.041Z,0.26
2023-02-26T09:27:03.587Z,0.32
2023-02-26T09:29:29.986Z,0.56
2023-02-26T09:31:56.685Z,0.28
2023-02-26T09:34:23.145Z,0.46
2023-02-26T09:36:49.564Z,0.41
2023-02-26T09:39:15.964Z,0.70
2023-02-26T09:41:54.199Z,0.59
2023-02-26T09:44:34.442Z,0.93
2023-02-26T09:47:23.742Z,1.04
2023-02-26T09:50:32.238Z,0.87
2023-02-26T09:53:19.934Z,0.58
2023-02-26T09:55:48.584Z,1.05
2023-02-26T09:58:29.583Z,1.12
2023-02-26T10:01:02.152Z,1.26
2023-02-26T10:04:06.118Z,1.32
2023-02-26T10:06:35.473Z,0.97
2023-02-26T10:09:13.116Z,1.14
2023-02-26T10:12:02.969Z,1.12
2023-02-26T10:14:36.884Z,1.34
2023-02-26T10:17:08.302Z,1.02
2023-02-26T10:19:38.627Z,1.05
2023-02-26T10:22:07.985Z,1.32
2023-02-26T10:25:06.395Z,1.22
2023-02-26T10:27:45.038Z,1.19
2023-02-26T10:30:28.594Z,1.39
2023-02-26T10:33:04.505Z,1.52
2023-02-26T10:35:33.060Z,1.31
2023-02-26T10:38:04.456Z,1.54
2023-02-26T10:40:46.406Z,1.64
2023-02-26T10:43:40.442Z,1.76
2023-02-26T10:46:17.460Z,1.74
2023-02-26T10:49:29.485Z,1.73
2023-02-26T10:51:57.304Z,1.59
2023-02-26T10:54:26.529Z,2.05
2023-02-26T10:56:52.991Z,2.19
2023-02-26T10:59:19.388Z,2.53
2023-02-26T11:01:46.006Z,2.81
2023-02-26T11:04:18.440Z,2.25
2023-02-26T11:06:55.519Z,2.45
2023-02-26T11:09:27.367Z,3.02
2023-02-26T11:12:12.728Z,3.04
2023-02-26T11:14:39.985Z,3.01
2023-02-26T11:17:22.364Z,2.81
2023-02-26T11:20:12.234Z,3.04
2023-02-26T11:22:39.260Z,2.98
2023-02-26T11:25:06.374Z,2.62
2023-02-26T11:27:36.124Z,2.16
2023-02-26T11:30:15.424Z,2.29
2023-02-26T11:32:45.404Z,2.96
2023-02-26T11:35:16.034Z,2.79
2023-02-26T11:37:47.765Z,2.54
2023-02-26T11:40:17.155Z,2.95
2023-02-26T11:42:49.522Z,3.62
2023-02-26T11:45:18.398Z,3.80
2023-02-26T11:47:44.836Z,4.20
2023-02-26T11:50:16.816Z,4.35
2023-02-26T11:52:45.586Z,4.20
2023-02-26T11:55:22.095Z,4.82
2023-02-26T11:57:56.530Z,4.07
2023-02-26T12:00:36.222Z,4.00
2023-02-26T12:03:06.262Z,3.33
2023-02-26T12:05:32.936Z,2.90
2023-02-26T12:07:59.407Z,2.89
2023-02-26T12:10:52.888Z,2.70
2023-02-26T12:13:40.394Z,3.08
2023-02-26T12:16:19.121Z,2.96
2023-02-26T12:19:10.640Z,2.76
2023-02-26T12:21:46.073Z,2.56
2023-02-26T12:24:37.364Z,2.66
2023-02-26T12:27:16.647Z,2.13
2023-02-26T12:29:59.214Z,2.33
2023-02-26T12:32:40.229Z,2.89
2023-02-26T12:35:26.958Z,2.80
2023-02-26T12:38:29.241Z,2.85
2023-02-26T12:41:19.563Z,3.05
2023-02-26T12:43:49.620Z,3.33
2023-02-26T12:47:05.604Z,2.96
2023-02-26T12:49:52.176Z,2.54
2023-02-26T12:52:30.854Z,2.58
2023-02-26T12:55:07.277Z,2.33
2023-02-26T12:57:55.289Z,2.65
2023-02-26T13:00:24.642Z,3.07
2023-02-26T13:03:09.770Z,2.76
2023-02-26T13:05:55.225Z,2.99
2023-02-26T13:08:26.648Z,3.43
2023-02-26T13:10:59.442Z,3.94
2023-02-26T13:13:44.141Z,3.91
2023-02-26T13:16:32.486Z,3.32
2023-02-26T13:19:09.915Z,2.85
2023-02-26T13:21:40.632Z,2.37
2023-02-26T13:24:08.034Z,2.66
2023-02-26T13:26:34.891Z,3.15
2023-02-26T13:29:10.280Z,3.48
2023-02-26T13:31:58.361Z,3.75
2023-02-26T13:34:40.002Z,3.76
2023-02-26T13:37:14.147Z,3.55
2023-02-26T13:39:55.707Z,3.30
2023-02-26T13:42:40.256Z,2.91
2023-02-26T13:45:12.696Z,2.70
2023-02-26T13:48:02.209Z,3.03
2023-02-26T13:50:56.029Z,3.09
2023-02-26T13:53:31.245Z,3.64
2023-02-26T13:56:21.760Z,4.71
2023-02-26T13:58:53.286Z,5.54
2023-02-26T14:01:28.510Z,6.84
2023-02-26T14:04:20.032Z,4.56
2023-02-26T14:06:47.502Z,3.75
2023-02-26T14:09:22.942Z,3.49
2023-02-26T14:11:55.271Z,3.75
2023-02-26T14:14:21.599Z,4.88
2023-02-26T14:16:54.352Z,6.41
2023-02-26T14:19:28.724Z,7.19
2023-02-26T14:22:02.996Z,7.97
2023-02-26T14:24:38.507Z,7.54
2023-02-26T14:27:10.957Z,7.21
2023-02-26T14:29:58.164Z,7.58
2023-02-26T14:32:30.464Z,8.29
2023-02-26T14:35:01.697Z,6.63
2023-02-26T14:37:28.563Z,5.56
2023-02-26T14:40:08.782Z,3.59
2023-02-26T14:42:43.714Z,3.29
2023-02-26T14:45:16.000Z,3.56
2023-02-26T14:47:44.113Z,3.81
2023-02-26T14:50:22.196Z,4.02
2023-02-26T14:53:26.395Z,5.22
2023-02-26T14:55:59.434Z,6.09
2023-02-26T14:58:54.052Z,7.19
2023-02-26T15:01:27.981Z,8.68
2023-02-26T15:04:07.858Z,8.39
2023-02-26T15:06:58.343Z,7.08
2023-02-26T15:09:36.063Z,7.34
2023-02-26T15:12:31.735Z,6.82
2023-02-26T15:15:26.955Z,5.88
2023-02-26T15:18:18.115Z,4.33
2023-02-26T15:20:57.465Z,3.71
2023-02-26T15:23:27.439Z,4.04
2023-02-26T15:25:57.046Z,3.83
2023-02-26T15:28:29.201Z,4.06
2023-02-26T15:30:55.660Z,4.04
2023-02-26T15:33:24.812Z,4.03
2023-02-26T15:35:52.995Z,4.05
2023-02-26T15:38:19.764Z,4.12
2023-02-26T15:40:46.527Z,4.06
2023-02-26T15:43:21.469Z,3.63
2023-02-26T15:45:49.298Z,3.47
2023-02-26T15:48:19.637Z,3.10
2023-02-26T15:50:50.148Z,3.20
2023-02-26T15:53:20.864Z,3.13
2023-02-26T15:55:51.712Z,3.19
2023-02-26T15:58:28.362Z,4.02
2023-02-26T16:00:55.489Z,3.94
2023-02-26T16:03:35.338Z,4.44
2023-02-26T16:06:02.081Z,4.20
2023-02-26T16:08:29.044Z,3.48
2023-02-26T16:10:57.467Z,3.56
2023-02-26T16:13:32.416Z,3.43
2023-02-26T16:16:07.191Z,3.47
2023-02-26T16:18:34.941Z,3.26
2023-02-26T16:21:02.650Z,3.23
2023-02-26T16:23:46.678Z,3.36
2023-02-26T16:26:18.046Z,3.11
2023-02-26T16:28:48.241Z,3.15
2023-02-26T16:31:18.793Z,2.93
2023-02-26T16:34:37.409Z,3.22
2023-02-26T16:37:26.177Z,3.19
2023-02-26T16:40:15.791Z,3.00
2023-02-26T16:42:51.419Z,3.00
2023-02-26T16:45:36.294Z,3.04
2023-02-26T16:48:05.604Z,2.87
2023-02-26T16:50:35.113Z,2.69
2023-02-26T16:53:07.061Z,2.77
2023-02-26T16:55:36.249Z,2.57
2023-02-26T16:58:07.450Z,2.52
2023-02-26T17:00:35.348Z,2.65
2023-02-26T17:03:21.550Z,2.44
2023-02-26T17:05:57.144Z,2.64
2023-02-26T17:08:28.761Z,2.60
2023-02-26T17:11:03.788Z,2.63
2023-02-26T17:13:32.435Z,2.68
2023-02-26T17:16:01.763Z,2.60
2023-02-26T17:18:29.042Z,2.59
2023-02-26T17:20:55.450Z,2.58
2023-02-26T17:23:24.253Z,2.43
2023-02-26T17:25:54.869Z,2.20
2023-02-26T17:28:23.921Z,2.13
2023-02-26T17:30:50.461Z,2.06
2023-02-26T17:33:16.837Z,2.19
2023-02-26T17:35:43.324Z,2.17
2023-02-26T17:38:13.425Z,1.96
2023-02-26T17:40:45.456Z,1.79
2023-02-26T17:43:11.860Z,1.79
2023-02-26T17:45:40.161Z,1.95
2023-02-26T17:48:07.619Z,1.99
2023-02-26T17:50:42.087Z,2.07
2023-02-26T17:53:09.380Z,2.23
2023-02-26T17:55:39.167Z,2.02
2023-02-26T17:58:07.172Z,2.00
2023-02-26T18:00:39.390Z,2.03
2023-02-26T18:03:05.814Z,2.00
2023-02-26T18:05:38.239Z,2.04
2023-02-26T18:08:06.647Z,2.16
2023-02-26T18:10:33.374Z,2.16
2023-02-26T18:12:59.811Z,2.18
2023-02-26T18:15:26.390Z,2.43
2023-02-26T18:17:52.768Z,2.53
2023-02-26T18:20:22.297Z,2.61
2023-02-26T18:22:50.337Z,2.54
2023-02-26T18:25:17.049Z,2.57
2023-02-26T18:27:43.836Z,2.49
2023-02-26T18:30:24.495Z,2.68
2023-02-26T18:32:51.238Z,2.83
2023-02-26T18:35:17.885Z,2.88
2023-02-26T18:37:45.223Z,2.89
2023-02-26T18:40:17.919Z,2.75
2023-02-26T18:42:44.502Z,2.73
2023-02-26T18:45:11.477Z,2.76
2023-02-26T18:47:38.578Z,2.71
2023-02-26T18:50:06.254Z,2.74
2023-02-26T18:52:32.835Z,2.50
2023-02-26T18:55:00.484Z,2.56
2023-02-26T18:57:26.896Z,2.50
2023-02-26T18:59:53.268Z,2.47
2023-02-26T19:02:19.652Z,2.26
2023-02-26T19:04:47.248Z,2.20
2023-02-26T19:07:13.854Z,2.10
2023-02-26T19:09:40.242Z,2.29
2023-02-26T19:12:08.138Z,2.26
2023-02-26T19:14:35.311Z,2.20
2023-02-26T19:17:01.691Z,2.20
2023-02-26T19:19:28.057Z,2.10
2023-02-26T19:21:54.729Z,1.76
2023-02-26T19:24:21.095Z,2.02
2023-02-26T19:26:47.514Z,1.83
2023-02-26T19:29:16.682Z,1.69
2023-02-26T19:31:43.549Z,1.74
2023-02-26T19:34:10.077Z,1.78
2023-02-26T19:36:36.441Z,1.87
2023-02-26T19:39:05.498Z,1.76
2023-02-26T19:41:32.641Z,1.96
2023-02-26T19:43:59.012Z,1.79
2023-02-26T19:46:25.605Z,2.07
2023-02-26T19:48:52.026Z,1.81
2023-02-26T19:51:18.808Z,1.95
2023-02-26T19:53:45.509Z,1.90
2023-02-26T19:56:12.512Z,1.62
2023-02-26T19:58:39.141Z,1.52
2023-02-26T20:01:06.233Z,1.50
2023-02-26T20:03:33.170Z,1.54
2023-02-26T20:05:59.636Z,1.46
2023-02-26T20:08:29.263Z,1.36
2023-02-26T20:10:57.230Z,1.24
2023-02-26T20:13:29.594Z,1.09
2023-02-26T20:15:58.616Z,1.10
2023-02-26T20:18:28.521Z,0.91
2023-02-26T20:20:55.124Z,0.79
2023-02-26T20:23:21.759Z,0.86
2023-02-26T20:25:50.797Z,0.81
2023-02-26T20:28:17.985Z,0.71
2023-02-26T20:30:44.460Z,0.85
2023-02-26T20:33:11.018Z,0.78
2023-02-26T20:35:37.658Z,0.60
2023-02-26T20:38:04.041Z,0.63
2023-02-26T20:40:30.494Z,0.63
2023-02-26T20:42:56.869Z,0.62
2023-02-26T20:45:23.268Z,0.65
2023-02-26T20:47:49.664Z,0.87
2023-02-26T20:50:16.220Z,0.84
2023-02-26T20:52:42.590Z,0.85
2023-02-26T20:55:09.210Z,0.88
2023-02-26T20:57:36.105Z,0.79
2023-02-26T21:00:10.649Z,0.63
2023-02-26T21:02:37.971Z,0.63
2023-02-26T21:05:05.355Z,0.42
2023-02-26T21:07:31.941Z,0.45
2023-02-26T21:09:58.678Z,0.37
2023-02-26T21:12:25.686Z,0.42
2023-02-26T21:14:52.669Z,0.45
2023-02-26T21:17:19.664Z,0.41
2023-02-26T21:19:46.208Z,0.37
2023-02-26T21:22:12.572Z,0.23
2023-02-26T21:24:38.938Z,0.56
2023-02-26T21:27:05.341Z,0.75
2023-02-26T21:29:32.022Z,0.66
2023-02-26T21:32:03.152Z,0.73
2023-02-26T21:34:34.910Z,0.55
2023-02-26T21:37:02.552Z,0.39
2023-02-26T21:39:30.676Z,0.31
2023-02-26T21:41:59.155Z,0.14
2023-02-26T21:44:26.798Z,0.36
2023-02-26T21:46:53.477Z,0.30
2023-02-26T21:49:19.865Z,0.38
2023-02-26T21:51:46.270Z,0.37
2023-02-26T21:54:12.653Z,0.56
2023-02-26T21:56:39.024Z,0.76
2023-02-26T21:59:05.423Z,0.81
2023-02-26T22:01:31.859Z,0.76
2023-02-26T22:03:58.293Z,0.43
2023-02-26T22:06:24.679Z,0.44
2023-02-26T22:08:51.052Z,0.21
2023-02-26T22:11:17.430Z,0.20
2023-02-26T22:13:43.813Z,0.28
2023-02-26T22:16:10.189Z,0.17
2023-02-26T22:18:36.698Z,0.14
2023-02-26T22:21:03.103Z,0.05
2023-02-26T22:23:29.483Z,-0.01
2023-02-26T22:25:56.192Z,-0.12
2023-02-26T22:28:22.602Z,-0.18
2023-02-26T22:30:48.997Z,-0.11
2023-02-26T22:33:15.397Z,-0.03
2023-02-26T22:35:43.391Z,-0.14
2023-02-26T22:38:09.787Z,-0.08
2023-02-26T22:40:37.023Z,0.01
2023-02-26T22:43:03.704Z,0.12
2023-02-26T22:45:30.107Z,0.03
2023-02-26T22:47:56.523Z,0.04
2023-02-26T22:50:23.075Z,0.10
2023-02-26T22:52:49.475Z,0.13
2023-02-26T22:55:15.928Z,0.25
2023-02-26T22:57:42.425Z,0.35
2023-02-26T23:00:12.007Z,0.05
2023-02-26T23:02:38.929Z,-0.11
2023-02-26T23:05:06.860Z,0.14
2023-02-26T23:07:33.267Z,0.15
2023-02-26T23:09:59.662Z,0.20
2023-02-26T23:12:26.055Z,0.31
2023-02-26T23:14:52.571Z,0.39
2023-02-26T23:17:19.013Z,0.52
2023-02-26T23:19:45.428Z,0.29
2023-02-26T23:22:11.863Z,0.09
2023-02-26T23:24:38.269Z,-0.15
2023-02-26T23:27:04.641Z,-0.13
2023-02-26T23:29:31.058Z,-0.29
2023-02-26T23:31:57.576Z,-0.12
2023-02-26T23:34:24.078Z,-0.24
2023-02-26T23:36:50.449Z,-0.24
2023-02-26T23:39:16.825Z,-0.24
2023-02-26T23:41:43.189Z,-0.26
2023-02-26T23:44:09.626Z,-0.35
2023-02-26T23:46:37.260Z,-0.27
2023-02-26T23:49:03.847Z,-0.10
2023-02-26T23:51:30.323Z,-0.13
2023-02-26T23:53:56.706Z,-0.08
2023-02-26T23:56:23.146Z,-0.15
2023-02-26T23:58:51.296Z,-0.24
